createdAt,value
2022-07-29T00:00:21.610Z,100904.77
2022-07-29T00:03:03.910Z,100904.09
2022-07-29T00:05:32.293Z,100907.09
2022-07-29T00:08:00.405Z,100910.73
2022-07-29T00:10:28.397Z,100913.23
2022-07-29T00:12:56.418Z,100910.79
2022-07-29T00:15:24.494Z,100911.67
2022-07-29T00:17:52.470Z,100910.14
2022-07-29T00:20:20.752Z,100915.10
2022-07-29T00:22:48.660Z,100918.22
2022-07-29T00:25:16.696Z,100916.14
2022-07-29T00:27:44.774Z,100918.07
2022-07-29T00:30:13.664Z,100916.30
2022-07-29T00:32:41.843Z,100917.96
2022-07-29T00:35:29.464Z,100916.48
2022-07-29T00:37:57.442Z,100916.06
2022-07-29T00:40:26.058Z,100912.70
2022-07-29T00:42:54.244Z,100910.11
2022-07-29T00:45:23.326Z,100907.33
2022-07-29T00:47:51.484Z,100903.14
2022-07-29T00:50:19.811Z,100898.10
2022-07-29T00:52:47.967Z,100897.44
2022-07-29T00:55:17.490Z,100898.04
2022-07-29T00:57:46.343Z,100895.50
2022-07-29T01:00:20.737Z,100898.25
2022-07-29T01:02:49.396Z,100905.03
2022-07-29T01:05:23.194Z,100905.73
2022-07-29T01:07:54.759Z,100908.27
2022-07-29T01:10:23.729Z,100901.69
2022-07-29T01:12:54.040Z,100902.26
2022-07-29T01:15:23.374Z,100901.20
2022-07-29T01:18:29.216Z,100901.89
2022-07-29T01:21:26.748Z,100903.98
2022-07-29T01:23:57.637Z,100906.04
2022-07-29T01:26:47.140Z,100905.36
2022-07-29T01:29:50.719Z,100904.29
2022-07-29T01:32:28.736Z,100900.48
2022-07-29T01:35:05.294Z,100896.52
2022-07-29T01:37:51.365Z,100899.41
2022-07-29T01:40:25.402Z,100903.40
2022-07-29T01:42:59.940Z,100903.16
2022-07-29T01:45:32.799Z,100910.34
2022-07-29T01:48:11.629Z,100915.23
2022-07-29T01:50:49.516Z,100914.88
2022-07-29T01:53:47.578Z,100910.39
2022-07-29T01:56:19.037Z,100907.83
2022-07-29T01:58:48.451Z,100906.21
2022-07-29T02:01:18.071Z,100908.03
2022-07-29T02:03:47.764Z,100907.89
2022-07-29T02:06:20.338Z,100909.79
2022-07-29T02:08:50.017Z,100911.37
2022-07-29T02:11:18.659Z,100914.26
2022-07-29T02:13:48.704Z,100914.36
2022-07-29T02:16:21.214Z,100914.60
2022-07-29T02:18:51.704Z,100910.56
2022-07-29T02:21:25.310Z,100912.22
2022-07-29T02:23:55.697Z,100914.98
2022-07-29T02:26:27.049Z,100913.58
2022-07-29T02:28:57.577Z,100913.35
2022-07-29T02:31:30.272Z,100910.24
2022-07-29T02:33:58.948Z,100908.21
2022-07-29T02:36:28.358Z,100909.21
2022-07-29T02:38:58.991Z,100910.42
2022-07-29T02:41:34.637Z,100912.11
2022-07-29T02:44:11.761Z,100916.33
2022-07-29T02:46:49.230Z,100914.69
2022-07-29T02:49:23.378Z,100918.48
2022-07-29T02:51:58.489Z,100919.73
2022-07-29T02:54:54.479Z,100918.36
2022-07-29T02:57:36.140Z,100923.26
2022-07-29T03:00:28.398Z,100921.69
2022-07-29T03:03:00.553Z,100922.30
2022-07-29T03:05:28.834Z,100918.59
2022-07-29T03:07:59.876Z,100918.17
2022-07-29T03:10:28.810Z,100914.63
2022-07-29T03:12:59.164Z,100913.80
2022-07-29T03:15:29.020Z,100914.62
2022-07-29T03:17:57.807Z,100914.52
2022-07-29T03:20:28.243Z,100913.18
2022-07-29T03:22:56.415Z,100917.34
2022-07-29T03:25:24.616Z,100917.52
2022-07-29T03:27:52.673Z,100919.05
2022-07-29T03:30:22.207Z,100920.64
2022-07-29T03:32:52.566Z,100921.44
2022-07-29T03:35:21.709Z,100921.33
2022-07-29T03:37:50.106Z,100919.11
2022-07-29T03:40:24.714Z,100918.76
2022-07-29T03:42:55.946Z,100914.98
2022-07-29T03:45:25.045Z,100916.73
2022-07-29T03:48:00.571Z,100917.96
2022-07-29T03:50:31.860Z,100921.60
2022-07-29T03:53:01.976Z,100922.95
2022-07-29T03:55:37.727Z,100921.55
2022-07-29T03:58:07.784Z,100920.91
2022-07-29T04:00:37.708Z,100923.81
2022-07-29T04:03:10.747Z,100929.09
2022-07-29T04:05:40.264Z,100928.08
2022-07-29T04:08:08.338Z,100926.38
2022-07-29T04:10:36.826Z,100923.99
2022-07-29T04:13:04.732Z,100927.88
2022-07-29T04:15:32.854Z,100927.88
2022-07-29T04:18:00.912Z,100924.72
2022-07-29T04:20:28.925Z,100924.89
2022-07-29T04:22:56.900Z,100923.03
2022-07-29T04:25:24.980Z,100924.85
2022-07-29T04:28:02.152Z,100928.05
2022-07-29T04:30:31.942Z,100924.08
2022-07-29T04:33:01.948Z,100924.73
2022-07-29T04:35:38.219Z,100925.20
2022-07-29T04:38:07.470Z,100922.30
2022-07-29T04:40:43.560Z,100921.38
2022-07-29T04:43:12.561Z,100919.38
2022-07-29T04:45:42.635Z,100920.50
2022-07-29T04:48:10.706Z,100923.67
2022-07-29T04:50:42.065Z,100929.96
2022-07-29T04:53:09.988Z,100932.63
2022-07-29T04:55:38.915Z,100933.55
2022-07-29T04:58:07.411Z,100934.54
2022-07-29T05:00:35.999Z,100931.55
2022-07-29T05:03:05.160Z,100932.33
2022-07-29T05:05:33.581Z,100935.09
2022-07-29T05:08:01.556Z,100938.11
2022-07-29T05:10:30.041Z,100942.54
2022-07-29T05:12:58.013Z,100943.98
2022-07-29T05:15:26.333Z,100946.86
2022-07-29T05:17:54.368Z,100951.48
2022-07-29T05:20:27.198Z,100955.52
2022-07-29T05:22:57.276Z,100954.83
2022-07-29T05:25:40.865Z,100955.77
2022-07-29T05:28:13.277Z,100956.38
2022-07-29T05:30:41.324Z,100950.08
2022-07-29T05:33:09.531Z,100949.27
2022-07-29T05:36:00.660Z,100951.08
2022-07-29T05:38:29.742Z,100953.24
2022-07-29T05:40:59.766Z,100955.10
2022-07-29T05:43:31.311Z,100956.32
2022-07-29T05:45:59.351Z,100951.78
2022-07-29T05:48:27.872Z,100946.84
2022-07-29T05:50:56.102Z,100942.00
2022-07-29T05:53:24.433Z,100940.79
2022-07-29T05:55:53.425Z,100940.92
2022-07-29T05:58:21.607Z,100945.64
2022-07-29T06:00:49.545Z,100948.38
2022-07-29T06:03:17.551Z,100940.11
2022-07-29T06:05:45.728Z,100938.60
2022-07-29T06:08:13.646Z,100934.60
2022-07-29T06:10:41.577Z,100933.61
2022-07-29T06:13:09.551Z,100938.73
2022-07-29T06:15:37.474Z,100933.38
2022-07-29T06:18:08.771Z,100935.16
2022-07-29T06:20:36.844Z,100932.50
2022-07-29T06:23:05.739Z,100931.31
2022-07-29T06:25:35.958Z,100933.81
2022-07-29T06:28:04.631Z,100927.33
2022-07-29T06:30:32.780Z,100926.70
2022-07-29T06:33:02.546Z,100925.67
2022-07-29T06:35:38.973Z,100926.60
2022-07-29T06:38:29.954Z,100926.48
2022-07-29T06:41:11.203Z,100928.95
2022-07-29T06:43:51.753Z,100929.54
2022-07-29T06:46:24.004Z,100928.34
2022-07-29T06:48:53.045Z,100932.70
2022-07-29T06:51:23.373Z,100932.14
2022-07-29T06:54:00.072Z,100935.20
2022-07-29T06:56:38.849Z,100933.26
2022-07-29T06:59:10.019Z,100935.56
2022-07-29T07:01:39.377Z,100934.64
2022-07-29T07:04:09.996Z,100932.42
2022-07-29T07:06:39.294Z,100933.64
2022-07-29T07:09:07.603Z,100931.65
2022-07-29T07:11:35.785Z,100926.86
2022-07-29T07:14:04.688Z,100922.21
2022-07-29T07:16:33.759Z,100924.04
2022-07-29T07:19:02.068Z,100920.36
2022-07-29T07:21:31.103Z,100924.11
2022-07-29T07:24:00.272Z,100926.00
2022-07-29T07:26:29.253Z,100923.31
2022-07-29T07:28:57.159Z,100921.23
2022-07-29T07:31:25.252Z,100922.44
2022-07-29T07:33:54.713Z,100920.95
2022-07-29T07:36:23.812Z,100923.48
2022-07-29T07:38:51.811Z,100924.85
2022-07-29T07:41:20.061Z,100923.20
2022-07-29T07:43:48.269Z,100921.45
2022-07-29T07:46:17.017Z,100920.27
2022-07-29T07:48:45.470Z,100921.48
2022-07-29T07:51:13.419Z,100925.39
2022-07-29T07:53:41.356Z,100924.52
2022-07-29T07:56:11.472Z,100923.44
2022-07-29T07:58:40.632Z,100925.13
2022-07-29T08:01:09.760Z,100921.69
2022-07-29T08:03:38.263Z,100921.45
2022-07-29T08:06:07.469Z,100925.61
2022-07-29T08:08:35.542Z,100921.77
2022-07-29T08:11:09.091Z,100921.38
2022-07-29T08:13:39.021Z,100927.58
2022-07-29T08:16:16.479Z,100918.60
2022-07-29T08:18:46.560Z,100919.10
2022-07-29T08:21:16.522Z,100921.24
2022-07-29T08:23:55.834Z,100918.95
2022-07-29T08:26:27.091Z,100916.77
2022-07-29T08:28:55.075Z,100916.70
2022-07-29T08:31:25.235Z,100917.65
2022-07-29T08:33:53.257Z,100915.44
2022-07-29T08:36:22.221Z,100917.73
2022-07-29T08:38:50.801Z,100918.27
2022-07-29T08:41:20.403Z,100917.35
2022-07-29T08:43:50.445Z,100917.58
2022-07-29T08:46:18.800Z,100914.86
2022-07-29T08:48:48.236Z,100914.20
2022-07-29T08:51:20.100Z,100918.39
2022-07-29T08:53:50.023Z,100917.05
2022-07-29T08:56:19.529Z,100918.45
2022-07-29T08:58:51.630Z,100915.81
2022-07-29T09:01:36.137Z,100909.19
2022-07-29T09:04:13.032Z,100904.98
2022-07-29T09:06:45.607Z,100898.71
2022-07-29T09:09:15.568Z,100893.48
2022-07-29T09:11:44.585Z,100894.22
2022-07-29T09:14:14.674Z,100893.55
2022-07-29T09:16:57.639Z,100892.24
2022-07-29T09:19:31.163Z,100893.23
2022-07-29T09:22:04.192Z,100894.64
2022-07-29T09:24:40.838Z,100901.85
2022-07-29T09:27:23.620Z,100900.39
2022-07-29T09:30:02.345Z,100896.48
2022-07-29T09:32:32.472Z,100891.23
2022-07-29T09:35:31.516Z,100885.92
2022-07-29T09:38:14.367Z,100887.75
2022-07-29T09:40:42.439Z,100883.48
2022-07-29T09:43:14.509Z,100877.55
2022-07-29T09:45:42.507Z,100872.53
2022-07-29T09:48:26.008Z,100872.11
2022-07-29T09:50:55.108Z,100876.66
2022-07-29T09:53:41.196Z,100880.40
2022-07-29T09:56:09.578Z,100879.17
2022-07-29T09:58:37.756Z,100881.34
2022-07-29T10:01:05.876Z,100876.02
2022-07-29T10:03:51.170Z,100877.63
2022-07-29T10:06:19.278Z,100876.72
2022-07-29T10:08:48.006Z,100876.88
2022-07-29T10:11:17.702Z,100873.09
2022-07-29T10:13:48.446Z,100872.81
2022-07-29T10:16:18.007Z,100867.52
2022-07-29T10:18:47.923Z,100867.30
2022-07-29T10:21:34.546Z,100860.77
2022-07-29T10:24:06.044Z,100858.04
2022-07-29T10:26:34.274Z,100860.73
2022-07-29T10:29:02.280Z,100857.13
2022-07-29T10:31:43.331Z,100851.84
2022-07-29T10:34:26.951Z,100850.98
2022-07-29T10:37:36.009Z,100848.45
2022-07-29T10:40:47.989Z,100852.95
2022-07-29T10:43:24.095Z,100845.02
2022-07-29T10:45:59.392Z,100846.45
2022-07-29T10:48:28.023Z,100848.20
2022-07-29T10:51:06.868Z,100843.58
2022-07-29T10:53:49.147Z,100848.59
2022-07-29T10:56:32.059Z,100849.67
2022-07-29T10:59:19.012Z,100840.83
2022-07-29T11:01:53.527Z,100840.59
2022-07-29T11:04:44.281Z,100838.91
2022-07-29T11:07:15.146Z,100838.50
2022-07-29T11:09:43.869Z,100835.48
2022-07-29T11:12:39.406Z,100831.38
2022-07-29T11:15:09.743Z,100827.64
2022-07-29T11:17:59.686Z,100829.88
2022-07-29T11:20:41.626Z,100826.61
2022-07-29T11:23:33.925Z,100825.61
2022-07-29T11:26:18.655Z,100822.34
2022-07-29T11:29:04.335Z,100828.67
2022-07-29T11:31:38.166Z,100829.80
2022-07-29T11:34:27.988Z,100830.73
2022-07-29T11:37:13.909Z,100825.89
2022-07-29T11:39:47.530Z,100823.07
2022-07-29T11:42:18.264Z,100819.45
2022-07-29T11:45:08.829Z,100816.77
2022-07-29T11:47:55.565Z,100816.60
2022-07-29T11:50:37.650Z,100816.93
2022-07-29T11:53:13.897Z,100813.55
2022-07-29T11:55:50.939Z,100814.08
2022-07-29T11:58:26.554Z,100812.11
2022-07-29T12:00:56.321Z,100812.13
2022-07-29T12:03:33.475Z,100808.40
2022-07-29T12:06:15.106Z,100806.20
2022-07-29T12:08:45.029Z,100800.41
2022-07-29T12:11:20.735Z,100801.64
2022-07-29T12:13:53.581Z,100800.14
2022-07-29T12:16:29.216Z,100800.64
2022-07-29T12:19:02.897Z,100799.54
2022-07-29T12:21:52.310Z,100797.66
2022-07-29T12:24:26.950Z,100800.52
2022-07-29T12:26:56.767Z,100803.67
2022-07-29T12:29:33.907Z,100802.94
2022-07-29T12:32:14.558Z,100790.73
2022-07-29T12:34:43.059Z,100795.83
2022-07-29T12:37:11.441Z,100788.52
2022-07-29T12:39:40.132Z,100786.55
2022-07-29T12:42:14.891Z,100785.33
2022-07-29T12:44:50.916Z,100787.42
2022-07-29T12:47:20.944Z,100789.27
2022-07-29T12:49:50.453Z,100785.84
2022-07-29T12:52:35.911Z,100790.33
2022-07-29T12:55:04.860Z,100798.14
2022-07-29T12:57:33.425Z,100790.42
2022-07-29T13:00:12.110Z,100790.54
2022-07-29T13:02:42.504Z,100793.17
2022-07-29T13:05:12.494Z,100785.54
2022-07-29T13:07:55.674Z,100778.63
2022-07-29T13:10:26.342Z,100771.02
2022-07-29T13:13:11.492Z,100768.65
2022-07-29T13:15:41.751Z,100767.36
2022-07-29T13:18:33.736Z,100763.47
2022-07-29T13:21:13.478Z,100759.83
2022-07-29T13:23:41.548Z,100760.81
2022-07-29T13:26:11.100Z,100758.77
2022-07-29T13:28:39.443Z,100760.46
2022-07-29T13:31:07.450Z,100757.20
2022-07-29T13:33:35.489Z,100756.09
2022-07-29T13:36:03.403Z,100756.43
2022-07-29T13:38:31.470Z,100755.23
2022-07-29T13:40:59.822Z,100753.88
2022-07-29T13:43:27.798Z,100753.25
2022-07-29T13:45:55.954Z,100754.39
2022-07-29T13:48:24.045Z,100750.15
2022-07-29T13:50:51.885Z,100747.65
2022-07-29T13:53:19.994Z,100747.96
2022-07-29T13:55:56.051Z,100742.33
2022-07-29T13:58:24.535Z,100736.48
2022-07-29T14:00:52.696Z,100736.27
2022-07-29T14:03:20.790Z,100741.45
2022-07-29T14:05:48.768Z,100736.14
2022-07-29T14:08:16.643Z,100732.02
2022-07-29T14:10:44.527Z,100731.88
2022-07-29T14:13:24.304Z,100730.94
2022-07-29T14:15:52.953Z,100729.46
2022-07-29T14:18:20.814Z,100726.34
2022-07-29T14:20:48.739Z,100724.52
2022-07-29T14:23:16.653Z,100723.85
2022-07-29T14:25:44.641Z,100722.24
2022-07-29T14:28:14.747Z,100718.30
2022-07-29T14:30:44.539Z,100716.94
2022-07-29T14:33:12.639Z,100713.70
2022-07-29T14:35:40.747Z,100714.54
2022-07-29T14:38:08.651Z,100714.04
2022-07-29T14:40:37.477Z,100718.63
2022-07-29T14:43:05.641Z,100713.92
2022-07-29T14:45:33.556Z,100716.32
2022-07-29T14:48:01.647Z,100711.73
2022-07-29T14:50:31.900Z,100710.44
2022-07-29T14:53:03.802Z,100707.07
2022-07-29T14:55:31.797Z,100706.14
2022-07-29T14:58:08.741Z,100702.48
2022-07-29T15:00:38.771Z,100694.46
2022-07-29T15:03:07.071Z,100694.55
2022-07-29T15:05:40.055Z,100692.04
2022-07-29T15:08:09.264Z,100686.70
2022-07-29T15:10:37.411Z,100685.96
2022-07-29T15:13:05.462Z,100681.29
2022-07-29T15:15:33.397Z,100679.54
2022-07-29T15:18:01.251Z,100674.09
2022-07-29T15:20:29.237Z,100673.06
2022-07-29T15:22:57.360Z,100671.95
2022-07-29T15:25:28.263Z,100669.00
2022-07-29T15:28:01.303Z,100667.30
2022-07-29T15:30:33.326Z,100669.19
2022-07-29T15:33:04.143Z,100665.27
2022-07-29T15:35:32.536Z,100663.93
2022-07-29T15:38:00.403Z,100661.66
2022-07-29T15:40:29.180Z,100660.23
2022-07-29T15:42:57.251Z,100662.20
2022-07-29T15:45:25.349Z,100665.05
2022-07-29T15:47:53.271Z,100662.77
2022-07-29T15:50:21.291Z,100664.48
2022-07-29T15:52:49.184Z,100661.56
2022-07-29T15:55:17.156Z,100656.19
2022-07-29T15:57:45.036Z,100650.15
2022-07-29T16:00:13.903Z,100658.08
2022-07-29T16:02:41.780Z,100654.93
2022-07-29T16:05:10.230Z,100654.67
2022-07-29T16:07:38.137Z,100654.77
2022-07-29T16:10:08.034Z,100655.14
2022-07-29T16:12:35.954Z,100654.27
2022-07-29T16:15:09.504Z,100652.68
2022-07-29T16:17:39.073Z,100651.95
2022-07-29T16:20:07.710Z,100645.52
2022-07-29T16:22:35.558Z,100646.98
2022-07-29T16:25:03.722Z,100647.57
2022-07-29T16:27:37.946Z,100645.09
2022-07-29T16:30:10.608Z,100645.14
2022-07-29T16:32:38.529Z,100644.78
2022-07-29T16:35:07.597Z,100640.64
2022-07-29T16:37:37.217Z,100643.77
2022-07-29T16:40:06.896Z,100647.71
2022-07-29T16:42:46.451Z,100642.73
2022-07-29T16:45:16.314Z,100647.30
2022-07-29T16:47:45.839Z,100649.96
2022-07-29T16:50:13.722Z,100657.46
2022-07-29T16:52:41.626Z,100662.78
2022-07-29T16:55:09.617Z,100666.83
2022-07-29T16:57:37.508Z,100670.35
2022-07-29T17:00:06.900Z,100675.04
2022-07-29T17:02:34.790Z,100671.98
2022-07-29T17:05:02.877Z,100673.05
2022-07-29T17:07:30.848Z,100670.71
2022-07-29T17:10:03.419Z,100667.62
2022-07-29T17:12:32.507Z,100667.33
2022-07-29T17:15:00.784Z,100667.50
2022-07-29T17:17:38.668Z,100670.23
2022-07-29T17:20:09.710Z,100671.45
2022-07-29T17:22:38.605Z,100667.08
2022-07-29T17:25:08.231Z,100667.98
2022-07-29T17:27:37.126Z,100663.43
2022-07-29T17:30:06.493Z,100667.08
2022-07-29T17:32:38.519Z,100666.88
2022-07-29T17:35:26.135Z,100667.52
2022-07-29T17:37:54.038Z,100667.06
2022-07-29T17:40:23.127Z,100671.11
2022-07-29T17:42:51.058Z,100676.11
2022-07-29T17:45:19.199Z,100675.23
2022-07-29T17:47:47.105Z,100671.90
2022-07-29T17:50:14.998Z,100669.13
2022-07-29T17:52:43.058Z,100671.92
2022-07-29T17:55:13.344Z,100672.28
2022-07-29T17:57:41.231Z,100675.41
2022-07-29T18:00:09.865Z,100673.52
2022-07-29T18:02:37.937Z,100676.83
2022-07-29T18:05:06.282Z,100677.59
2022-07-29T18:07:34.257Z,100670.89
2022-07-29T18:10:02.132Z,100671.52
2022-07-29T18:12:30.069Z,100669.65
2022-07-29T18:14:58.006Z,100674.71
2022-07-29T18:17:35.065Z,100675.98
2022-07-29T18:20:13.760Z,100674.95
2022-07-29T18:22:41.707Z,100677.38
2022-07-29T18:25:10.250Z,100677.38
2022-07-29T18:27:38.397Z,100675.02
2022-07-29T18:30:07.300Z,100674.79
2022-07-29T18:32:35.274Z,100676.41
2022-07-29T18:35:05.390Z,100680.68
2022-07-29T18:38:02.067Z,100679.79
2022-07-29T18:40:25.451Z,100679.83
2022-07-29T18:42:53.489Z,100675.83
2022-07-29T18:45:21.397Z,100676.50
2022-07-29T18:47:49.721Z,100674.45
2022-07-29T18:50:19.728Z,100671.48
2022-07-29T18:52:47.688Z,100673.77
2022-07-29T18:55:15.642Z,100677.01
2022-07-29T18:57:53.663Z,100680.73
2022-07-29T19:00:25.029Z,100676.34
2022-07-29T19:02:53.294Z,100673.73
2022-07-29T19:05:21.874Z,100673.43
2022-07-29T19:07:49.756Z,100677.26
2022-07-29T19:10:17.838Z,100683.96
2022-07-29T19:12:45.806Z,100689.80
2022-07-29T19:15:20.472Z,100696.94
2022-07-29T19:17:48.997Z,100696.46
2022-07-29T19:20:17.059Z,100696.02
2022-07-29T19:22:44.930Z,100696.45
2022-07-29T19:25:13.007Z,100697.56
2022-07-29T19:27:43.027Z,100696.34
2022-07-29T19:30:11.431Z,100699.45
2022-07-29T19:32:39.393Z,100701.11
2022-07-29T19:35:31.363Z,100703.24
2022-07-29T19:38:01.549Z,100701.00
2022-07-29T19:40:30.231Z,100698.29
2022-07-29T19:42:58.175Z,100694.05
2022-07-29T19:45:26.462Z,100693.29
2022-07-29T19:48:00.793Z,100690.39
2022-07-29T19:50:29.967Z,100699.64
2022-07-29T19:52:58.525Z,100700.34
2022-07-29T19:55:27.405Z,100700.88
2022-07-29T19:57:55.752Z,100702.95
2022-07-29T20:00:24.365Z,100703.55
2022-07-29T20:02:52.665Z,100708.64
2022-07-29T20:05:20.646Z,100706.59
2022-07-29T20:07:48.629Z,100711.71
2022-07-29T20:10:16.753Z,100712.23
2022-07-29T20:12:44.683Z,100711.75
2022-07-29T20:15:16.438Z,100705.63
2022-07-29T20:17:44.886Z,100709.01
2022-07-29T20:20:12.828Z,100708.69
2022-07-29T20:22:40.765Z,100705.30
2022-07-29T20:25:12.094Z,100703.98
2022-07-29T20:27:40.785Z,100705.00
2022-07-29T20:30:09.465Z,100703.75
2022-07-29T20:32:40.821Z,100702.37
2022-07-29T20:35:10.152Z,100700.48
2022-07-29T20:37:52.437Z,100700.13
2022-07-29T20:40:25.937Z,100700.84
2022-07-29T20:42:55.095Z,100699.87
2022-07-29T20:45:23.767Z,100698.47
2022-07-29T20:47:52.220Z,100695.09
2022-07-29T20:50:23.748Z,100689.55
2022-07-29T20:52:52.925Z,100689.17
2022-07-29T20:55:21.349Z,100686.38
2022-07-29T20:57:49.335Z,100683.83
2022-07-29T21:00:17.333Z,100681.70
2022-07-29T21:02:45.214Z,100682.89
2022-07-29T21:05:13.140Z,100683.93
2022-07-29T21:07:41.054Z,100684.83
2022-07-29T21:10:09.037Z,100683.28
2022-07-29T21:12:37.028Z,100682.38
2022-07-29T21:15:06.689Z,100682.61
2022-07-29T21:17:40.751Z,100684.03
2022-07-29T21:20:09.079Z,100678.06
2022-07-29T21:22:36.952Z,100676.79
2022-07-29T21:25:05.819Z,100677.99
2022-07-29T21:27:52.693Z,100674.98
2022-07-29T21:30:21.333Z,100677.66
2022-07-29T21:32:49.527Z,100677.59
2022-07-29T21:35:35.883Z,100681.63
2022-07-29T21:38:05.350Z,100679.84
2022-07-29T21:40:33.215Z,100676.52
2022-07-29T21:43:01.272Z,100674.63
2022-07-29T21:45:29.245Z,100668.52
2022-07-29T21:47:57.090Z,100666.73
2022-07-29T21:50:25.070Z,100670.56
2022-07-29T21:52:52.899Z,100672.44
2022-07-29T21:55:21.259Z,100669.27
2022-07-29T21:57:54.416Z,100672.15
2022-07-29T22:00:25.616Z,100668.73
2022-07-29T22:02:53.641Z,100666.13
2022-07-29T22:05:21.992Z,100662.84
2022-07-29T22:07:54.462Z,100666.96
2022-07-29T22:10:25.837Z,100661.67
2022-07-29T22:12:55.566Z,100660.23
2022-07-29T22:15:24.571Z,100660.17
2022-07-29T22:17:53.233Z,100657.44
2022-07-29T22:20:21.370Z,100658.00
2022-07-29T22:22:49.330Z,100664.16
2022-07-29T22:25:17.898Z,100658.58
2022-07-29T22:27:45.978Z,100659.52
2022-07-29T22:30:14.800Z,100651.69
2022-07-29T22:32:42.750Z,100659.64
2022-07-29T22:35:11.047Z,100659.39
2022-07-29T22:37:39.309Z,100655.15
2022-07-29T22:40:07.690Z,100656.79
2022-07-29T22:42:35.918Z,100653.91
2022-07-29T22:45:10.566Z,100649.35
2022-07-29T22:47:47.881Z,100653.09
2022-07-29T22:50:17.271Z,100652.20
2022-07-29T22:52:46.099Z,100650.75
2022-07-29T22:55:14.807Z,100646.98
2022-07-29T22:57:43.268Z,100646.54
2022-07-29T23:00:12.859Z,100645.80
2022-07-29T23:02:41.633Z,100648.36
2022-07-29T23:05:10.718Z,100648.74
2022-07-29T23:07:38.712Z,100648.53
2022-07-29T23:10:06.919Z,100645.38
2022-07-29T23:12:35.005Z,100638.82
2022-07-29T23:15:04.531Z,100641.24
2022-07-29T23:17:36.061Z,100635.96
2022-07-29T23:20:07.896Z,100634.34
2022-07-29T23:22:36.235Z,100639.19
2022-07-29T23:25:05.275Z,100635.48
2022-07-29T23:27:33.251Z,100637.79
2022-07-29T23:30:01.186Z,100637.39
2022-07-29T23:32:29.095Z,100635.98
2022-07-29T23:34:56.991Z,100635.77
2022-07-29T23:37:26.609Z,100637.21
2022-07-29T23:39:54.953Z,100636.10
2022-07-29T23:42:23.197Z,100633.86
2022-07-29T23:44:51.298Z,100635.38
2022-07-29T23:47:19.123Z,100635.39
2022-07-29T23:49:49.914Z,100627.65
2022-07-29T23:52:18.258Z,100630.23
2022-07-29T23:54:46.271Z,100627.83
2022-07-29T23:57:14.245Z,100631.66
2022-07-29T23:59:42.250Z,100638.83
